createdAt,value
2022-09-04T00:00:13.245Z,7.80
2022-09-04T00:05:27.670Z,8.11
2022-09-04T00:10:42.031Z,8.01
2022-09-04T00:16:07.454Z,7.53
2022-09-04T00:21:26.640Z,7.90
2022-09-04T00:26:58.365Z,7.71
2022-09-04T00:32:07.475Z,7.70
2022-09-04T00:37:13.486Z,7.66
2022-09-04T00:43:09.412Z,6.87
2022-09-04T00:48:56.585Z,6.93
2022-09-04T00:54:37.287Z,7.57
2022-09-04T01:00:05.152Z,6.59
2022-09-04T01:05:43.069Z,3.71
2022-09-04T01:11:24.869Z,7.33
2022-09-04T01:16:36.737Z,7.13
2022-09-04T01:21:49.457Z,7.12
2022-09-04T01:27:04.998Z,7.11
2022-09-04T01:32:52.365Z,3.65
2022-09-04T01:38:13.064Z,7.03
2022-09-04T01:43:21.835Z,6.05
2022-09-04T01:48:39.378Z,7.11
2022-09-04T01:53:54.165Z,4.20
2022-09-04T01:58:59.540Z,6.39
2022-09-04T02:04:22.088Z,6.94
2022-09-04T02:09:47.669Z,6.84
2022-09-04T02:14:57.236Z,6.80
2022-09-04T02:20:11.665Z,6.95
2022-09-04T02:25:33.360Z,6.83
2022-09-04T02:30:54.480Z,6.25
2022-09-04T02:36:04.609Z,6.69
2022-09-04T02:41:17.368Z,6.32
2022-09-04T02:46:42.560Z,6.66
2022-09-04T02:51:45.881Z,6.53
2022-09-04T02:57:29.708Z,6.58
2022-09-04T03:02:44.304Z,6.45
2022-09-04T03:08:05.652Z,5.81
2022-09-04T03:13:16.238Z,6.40
2022-09-04T03:18:27.872Z,6.33
2022-09-04T03:23:35.552Z,4.54
2022-09-04T03:29:02.595Z,6.32
2022-09-04T03:34:33.787Z,6.24
2022-09-04T03:39:46.763Z,6.18
2022-09-04T03:45:21.133Z,6.25
2022-09-04T03:50:49.450Z,6.26
2022-09-04T03:56:30.443Z,5.84
2022-09-04T04:02:30.811Z,6.12
2022-09-04T04:07:55.373Z,6.28
2022-09-04T04:13:10.625Z,6.38
2022-09-04T04:18:35.185Z,6.48
2022-09-04T04:23:47.578Z,6.50
2022-09-04T04:29:16.241Z,6.10
2022-09-04T04:34:54.240Z,6.56
2022-09-04T04:40:09.079Z,6.64
2022-09-04T04:45:41.875Z,6.34
2022-09-04T04:50:54.855Z,6.95
2022-09-04T04:56:01.112Z,6.12
2022-09-04T05:01:43.482Z,6.31
2022-09-04T05:07:00.516Z,7.33
2022-09-04T05:12:18.688Z,7.45
2022-09-04T05:17:24.046Z,7.51
2022-09-04T05:22:34.065Z,7.63
2022-09-04T05:27:45.506Z,7.60
2022-09-04T05:33:04.892Z,6.77
2022-09-04T05:38:16.796Z,7.93
2022-09-04T05:43:34.869Z,8.02
2022-09-04T05:48:48.478Z,8.13
2022-09-04T05:54:09.299Z,8.25
2022-09-04T05:59:44.202Z,8.39
2022-09-04T06:04:46.516Z,8.47
2022-09-04T06:10:07.102Z,8.61
2022-09-04T06:15:21.613Z,8.75
2022-09-04T06:20:56.405Z,8.89
2022-09-04T06:26:05.053Z,9.02
2022-09-04T06:31:13.497Z,9.16
2022-09-04T06:36:25.465Z,9.33
2022-09-04T06:41:50.916Z,9.52
2022-09-04T06:47:03.548Z,9.65
2022-09-04T06:52:22.544Z,9.80
2022-09-04T06:57:24.914Z,9.99
2022-09-04T07:02:52.596Z,9.92
2022-09-04T07:08:08.794Z,10.11
2022-09-04T07:13:46.802Z,9.58
2022-09-04T07:18:57.345Z,10.62
2022-09-04T07:24:29.919Z,10.72
2022-09-04T07:29:50.804Z,9.15
2022-09-04T07:35:03.602Z,10.25
2022-09-04T07:40:30.780Z,8.92
2022-09-04T07:45:39.854Z,9.21
2022-09-04T07:51:11.745Z,11.42
2022-09-04T07:56:56.629Z,10.98
2022-09-04T08:02:37.107Z,11.78
2022-09-04T08:07:44.218Z,11.79
2022-09-04T08:13:17.993Z,11.93
2022-09-04T08:18:58.131Z,12.15
2022-09-04T08:25:02.408Z,12.34
2022-09-04T08:30:13.857Z,12.49
2022-09-04T08:35:24.027Z,12.63
2022-09-04T08:40:50.193Z,12.86
2022-09-04T08:46:08.543Z,12.95
2022-09-04T08:51:35.788Z,12.91
2022-09-04T08:57:11.469Z,11.31
2022-09-04T09:02:52.941Z,11.78
2022-09-04T09:08:20.417Z,13.03
2022-09-04T09:13:44.422Z,13.03
2022-09-04T09:19:24.103Z,12.97
2022-09-04T09:25:09.948Z,13.14
2022-09-04T09:30:24.977Z,11.52
2022-09-04T09:36:02.532Z,13.34
2022-09-04T09:41:49.853Z,11.68
2022-09-04T09:47:21.786Z,13.67
2022-09-04T09:52:36.098Z,13.61
2022-09-04T09:58:03.463Z,13.59
2022-09-04T10:03:40.540Z,13.55
2022-09-04T10:09:11.639Z,13.50
2022-09-04T10:14:33.708Z,12.80
2022-09-04T10:20:02.205Z,13.33
2022-09-04T10:25:50.924Z,13.43
2022-09-04T10:31:27.235Z,13.41
2022-09-04T10:37:07.689Z,12.72
2022-09-04T10:42:34.101Z,13.58
2022-09-04T10:48:09.586Z,13.58
2022-09-04T10:53:37.026Z,13.51
2022-09-04T10:59:18.020Z,13.53
2022-09-04T11:04:47.937Z,13.52
2022-09-04T11:10:33.054Z,12.91
2022-09-04T11:16:21.885Z,13.47
2022-09-04T11:22:10.649Z,13.85
2022-09-04T11:28:01.817Z,11.99
2022-09-04T11:33:37.014Z,13.76
2022-09-04T11:39:10.347Z,13.81
2022-09-04T11:44:22.503Z,13.96
2022-09-04T11:49:43.396Z,14.20
2022-09-04T11:55:28.607Z,12.95
2022-09-04T12:00:41.459Z,13.83
2022-09-04T12:05:52.904Z,14.16
2022-09-04T12:11:32.439Z,14.26
2022-09-04T12:16:58.425Z,14.41
2022-09-04T12:22:15.107Z,14.34
2022-09-04T12:27:50.872Z,14.36
2022-09-04T12:33:30.865Z,14.32
2022-09-04T12:38:33.244Z,14.21
2022-09-04T12:43:45.532Z,14.19
2022-09-04T12:49:03.076Z,14.18
2022-09-04T12:54:43.862Z,14.16
2022-09-04T13:00:15.687Z,13.29
2022-09-04T13:05:49.754Z,12.94
2022-09-04T13:11:18.885Z,14.05
2022-09-04T13:16:55.272Z,13.52
2022-09-04T13:22:16.326Z,14.33
2022-09-04T13:27:36.149Z,13.82
2022-09-04T13:33:15.436Z,14.26
2022-09-04T13:38:39.790Z,14.13
2022-09-04T13:44:13.058Z,14.16
2022-09-04T13:49:54.335Z,13.79
2022-09-04T14:00:36.108Z,11.97
2022-09-04T14:05:44.374Z,12.34
2022-09-04T14:11:19.709Z,13.91
2022-09-04T14:16:41.750Z,13.43
2022-09-04T14:22:23.767Z,13.87
2022-09-04T14:27:48.205Z,13.61
2022-09-04T14:33:35.731Z,13.78
2022-09-04T14:38:49.727Z,13.57
2022-09-04T14:44:22.870Z,11.49
2022-09-04T14:49:33.979Z,12.51
2022-09-04T14:54:49.558Z,12.97
2022-09-04T15:00:07.655Z,11.53
2022-09-04T15:05:25.997Z,13.18
2022-09-04T15:11:10.403Z,11.03
2022-09-04T15:16:38.507Z,12.47
2022-09-04T15:21:59.798Z,13.02
2022-09-04T15:27:21.580Z,12.98
2022-09-04T15:32:31.384Z,12.80
2022-09-04T15:37:34.428Z,12.82
2022-09-04T15:42:47.252Z,12.83
2022-09-04T15:48:11.469Z,12.74
2022-09-04T15:53:34.432Z,12.68
2022-09-04T15:58:46.434Z,11.67
2022-09-04T16:04:28.341Z,12.48
2022-09-04T16:09:58.603Z,12.31
2022-09-04T16:15:39.100Z,12.15
2022-09-04T16:21:09.999Z,9.62
2022-09-04T16:26:32.773Z,8.38
2022-09-04T16:31:42.728Z,9.23
2022-09-04T16:36:49.343Z,9.32
2022-09-04T16:42:25.974Z,11.54
2022-09-04T16:47:52.807Z,9.83
2022-09-04T16:53:21.894Z,10.82
2022-09-04T16:58:51.434Z,11.11
2022-09-04T17:04:39.976Z,9.06
2022-09-04T17:15:58.960Z,10.92
2022-09-04T17:29:01.668Z,10.72
2022-09-04T17:29:15.423Z,9.13
2022-09-04T17:36:56.793Z,10.46
2022-09-04T17:40:48.575Z,10.76
2022-09-04T17:44:03.038Z,10.29
2022-09-04T17:49:21.708Z,10.22
2022-09-04T17:54:40.968Z,10.10
2022-09-04T17:59:58.487Z,9.69
2022-09-04T18:05:22.567Z,10.15
2022-09-04T18:10:36.042Z,9.82
2022-09-04T18:15:49.414Z,9.33
2022-09-04T18:21:06.889Z,9.44
2022-09-04T18:26:16.898Z,9.69
2022-09-04T18:37:12.974Z,9.44
2022-09-04T18:37:44.980Z,9.63
2022-09-04T18:47:58.113Z,9.04
2022-09-04T18:50:48.581Z,8.86
2022-09-04T18:53:43.937Z,9.25
2022-09-04T18:59:07.756Z,9.23
2022-09-04T19:04:19.135Z,9.10
2022-09-04T19:09:31.601Z,8.70
2022-09-04T19:14:42.430Z,8.41
2022-09-04T19:20:06.037Z,8.41
2022-09-04T19:25:18.745Z,8.76
2022-09-04T19:30:26.337Z,8.20
2022-09-04T19:35:42.689Z,8.31
2022-09-04T19:45:55.271Z,8.68
2022-09-04T19:46:30.432Z,8.59
2022-09-04T19:53:33.143Z,8.27
2022-09-04T19:57:33.862Z,8.53
2022-09-04T20:02:46.149Z,8.45
2022-09-04T20:08:16.257Z,8.19
2022-09-04T20:13:44.766Z,8.44
2022-09-04T20:18:51.108Z,8.31
2022-09-04T20:24:18.336Z,7.98
2022-09-04T20:29:57.147Z,8.26
2022-09-04T20:35:13.695Z,8.04
2022-09-04T20:40:31.926Z,7.85
2022-09-04T20:48:28.437Z,7.61
2022-09-04T20:52:51.600Z,7.45
2022-09-04T20:59:33.936Z,7.85
2022-09-04T21:03:23.713Z,7.60
2022-09-04T21:08:13.873Z,7.55
2022-09-04T21:13:22.987Z,7.64
2022-09-04T21:18:52.736Z,7.61
2022-09-04T21:24:18.195Z,7.53
2022-09-04T21:29:46.959Z,7.53
2022-09-04T21:34:54.823Z,7.07
2022-09-04T21:40:25.838Z,7.39
2022-09-04T21:45:50.954Z,7.43
2022-09-04T21:51:18.644Z,7.39
2022-09-04T22:02:27.113Z,7.04
2022-09-04T22:02:59.370Z,7.27
2022-09-04T22:13:27.024Z,7.29
2022-09-04T22:14:03.868Z,7.03
2022-09-04T22:19:27.266Z,7.15
2022-09-04T22:24:57.038Z,7.17
2022-09-04T22:30:10.618Z,6.91
2022-09-04T22:35:17.467Z,7.01
2022-09-04T22:40:26.241Z,7.01
2022-09-04T22:46:08.601Z,6.55
2022-09-04T22:51:38.066Z,6.68
2022-09-04T22:56:53.047Z,6.97
2022-09-04T23:02:13.963Z,6.92
2022-09-04T23:13:42.022Z,6.69
2022-09-04T23:14:05.434Z,6.90
2022-09-04T23:25:35.296Z,6.77
2022-09-04T23:26:54.233Z,6.25
2022-09-04T23:30:02.771Z,6.81
2022-09-04T23:35:28.044Z,6.55
2022-09-04T23:40:53.759Z,6.84
2022-09-04T23:46:08.907Z,6.76
2022-09-04T23:51:41.023Z,6.47
2022-09-04T23:56:46.406Z,6.37
